Time;durP1;ratioP1;P1;durP2;ratioP2;P2;SDS_P1;SDS_P2;PMS_P1;PMS_P2;Temp;Humidity;BMP_temperature;BMP_pressure;BME280_temperature;BME280_humidity;BME280_pressure;Samples;Min_cycle;Max_cycle;Signal;HPM_P1;HPM_P2
2022/06/18 00:00:48;;;;;;;5.20;1.80;;;22.80;92.30;;;;;;6636010;88;20218;-79
2022/06/18 00:13:39;;;;;;;2.80;1.65;;;22.80;92.00;;;;;;6629488;89;20782;-79
2022/06/18 00:21:57;;;;;;;5.00;1.40;;;22.70;92.30;;;;;;6645247;77;20342;-78
2022/06/18 00:31:58;;;;;;;2.42;1.33;;;22.60;92.30;;;;;;6641292;89;20188;-78
2022/06/18 00:42:05;;;;;;;3.47;1.60;;;22.60;92.20;;;;;;6637265;89;20287;-78
2022/06/18 00:52:37;;;;;;;2.47;1.30;;;22.60;92.10;;;;;;6643725;88;20717;-79
2022/06/18 01:02:42;;;;;;;2.80;1.40;;;22.60;91.80;;;;;;6623669;88;20752;-78
2022/06/18 01:12:42;;;;;;;4.32;1.50;;;22.50;92.10;;;;;;6643887;89;20667;-79
2022/06/18 01:23:14;;;;;;;3.77;1.60;;;22.30;92.80;;;;;;6645187;89;20287;-78
2022/06/18 01:33:15;;;;;;;2.83;1.50;;;22.20;93.60;;;;;;6639102;88;20536;-78
2022/06/18 01:43:18;;;;;;;5.30;1.40;;;22.00;94.90;;;;;;6632898;89;20778;-78
2022/06/18 01:53:30;;;;;;;6.05;1.60;;;21.80;95.90;;;;;;6643579;88;20188;-77
2022/06/18 02:03:31;;;;;;;4.03;1.60;;;21.70;96.60;;;;;;6638749;88;20214;-78
2022/06/18 02:13:36;;;;;;;5.45;1.95;;;21.60;97.50;;;;;;6639035;89;20197;-78
2022/06/18 02:23:37;;;;;;;4.35;2.00;;;21.40;98.70;;;;;;6636180;89;20230;-78
2022/06/18 02:33:47;;;;;;;3.95;2.20;;;21.30;99.80;;;;;;6651602;88;20171;-78
2022/06/18 02:43:48;;;;;;;3.25;1.80;;;21.20;99.90;;;;;;6640251;88;20192;-78
2022/06/18 02:53:49;;;;;;;7.35;1.95;;;21.00;99.90;;;;;;6639395;88;20241;-78
2022/06/18 03:03:54;;;;;;;7.55;1.80;;;20.90;99.90;;;;;;6644883;89;20237;-78
2022/06/18 03:13:57;;;;;;;4.72;1.80;;;20.90;99.90;;;;;;6633930;88;20200;-78
2022/06/18 03:23:58;;;;;;;3.42;1.58;;;20.90;99.90;;;;;;6636269;89;20214;-78
2022/06/18 03:33:59;;;;;;;3.90;1.70;;;21.00;99.90;;;;;;6638319;88;20184;-78
2022/06/18 03:43:59;;;;;;;3.20;1.70;;;20.90;99.90;;;;;;6637607;89;20605;-78
2022/06/18 03:54:00;;;;;;;3.47;1.80;;;20.90;99.90;;;;;;6635866;88;20193;-78
2022/06/18 04:04:01;;;;;;;4.15;1.92;;;20.80;99.90;;;;;;6641187;89;20287;-78
2022/06/18 04:14:03;;;;;;;3.00;1.77;;;20.70;99.90;;;;;;6633878;89;20646;-78
2022/06/18 04:24:03;;;;;;;6.25;2.00;;;20.80;99.90;;;;;;6640519;89;20205;-78
2022/06/18 04:34:04;;;;;;;2.40;1.73;;;20.70;99.90;;;;;;6640477;88;20222;-78
2022/06/18 04:44:05;;;;;;;3.45;1.60;;;21.00;99.90;;;;;;6644170;88;20189;-78
2022/06/18 04:54:06;;;;;;;3.55;1.75;;;21.10;99.90;;;;;;6640989;89;20212;-78
2022/06/18 05:04:10;;;;;;;3.50;1.67;;;21.10;99.90;;;;;;6638470;88;20301;-78
2022/06/18 05:14:10;;;;;;;2.30;1.67;;;21.30;99.90;;;;;;6651396;88;20233;-78
2022/06/18 05:24:11;;;;;;;4.00;1.80;;;21.50;99.90;;;;;;6638167;88;20585;-78
2022/06/18 05:34:11;;;;;;;3.58;2.10;;;21.70;99.90;;;;;;6643207;88;20298;-78
2022/06/18 05:44:12;;;;;;;3.20;1.87;;;21.80;99.90;;;;;;6639541;89;20190;-78
2022/06/18 05:54:13;;;;;;;2.83;1.80;;;22.10;99.90;;;;;;6639319;88;20520;-78
2022/06/18 06:04:16;;;;;;;3.40;1.75;;;22.40;99.90;;;;;;6639345;89;20277;-78
2022/06/18 06:14:19;;;;;;;3.00;1.80;;;22.70;99.90;;;;;;6641633;88;20198;-79
2022/06/18 06:25:01;;;;;;;3.67;1.80;;;23.20;99.90;;;;;;6650202;77;20185;-78
2022/06/18 06:35:01;;;;;;;3.92;1.77;;;23.60;99.90;;;;;;6635658;89;20190;-78
2022/06/18 06:45:02;;;;;;;2.87;1.90;;;24.10;99.90;;;;;;6641243;89;20218;-78
2022/06/18 07:05:25;;;;;;;5.43;1.73;;;25.20;99.90;;;;;;6654382;89;20233;-78
2022/06/18 07:15:25;;;;;;;6.67;1.87;;;25.70;99.90;;;;;;6655219;89;20259;-78
2022/06/18 07:25:26;;;;;;;5.53;1.90;;;26.30;99.90;;;;;;6651899;89;21060;-80
2022/06/18 07:35:30;;;;;;;4.43;1.70;;;26.70;99.80;;;;;;6650939;89;20245;-79
2022/06/18 07:45:30;;;;;;;4.68;1.98;;;26.90;99.50;;;;;;6650054;89;20216;-79
2022/06/18 07:55:31;;;;;;;3.05;1.80;;;27.80;99.10;;;;;;6652881;89;20275;-80
2022/06/18 08:05:32;;;;;;;5.00;1.83;;;28.40;98.00;;;;;;6653959;88;20279;-78
2022/06/18 08:15:33;;;;;;;2.58;1.85;;;29.20;97.00;;;;;;6654728;89;20254;-78
2022/06/18 08:25:37;;;;;;;3.78;1.80;;;29.40;96.70;;;;;;6655113;89;20896;-79
2022/06/18 08:35:38;;;;;;;3.60;2.12;;;30.50;95.80;;;;;;6654825;89;20226;-78
2022/06/18 08:45:57;;;;;;;6.90;2.30;;;30.50;95.60;;;;;;6650189;89;20235;-80
2022/06/18 08:56:04;;;;;;;4.37;1.95;;;31.10;94.80;;;;;;6618211;89;20697;-78
2022/06/18 09:06:15;;;;;;;5.00;2.10;;;32.00;94.00;;;;;;6625065;89;20202;-79
2022/06/18 09:16:20;;;;;;;4.35;2.12;;;32.40;93.70;;;;;;6625892;89;20684;-79
2022/06/18 09:26:26;;;;;;;6.50;2.08;;;32.60;92.90;;;;;;6624441;89;20688;-79
2022/06/18 09:36:33;;;;;;;6.97;2.10;;;32.80;93.50;;;;;;6623747;89;20182;-78
2022/06/18 09:47:09;;;;;;;5.65;1.98;;;34.30;91.60;;;;;;6624651;89;20205;-79
2022/06/18 09:57:13;;;;;;;7.28;2.53;;;34.60;91.20;;;;;;6628127;89;20232;-80
2022/06/18 10:07:16;;;;;;;7.05;2.30;;;35.00;90.50;;;;;;6634052;89;20211;-79
2022/06/18 10:17:52;;;;;;;8.93;2.53;;;36.40;87.20;;;;;;6643604;89;21594;-79
2022/06/18 10:28:11;;;;;;;6.70;2.60;;;36.20;81.80;;;;;;6624954;89;20272;-82
2022/06/18 10:38:24;;;;;;;6.82;2.50;;;36.80;79.80;;;;;;6657750;89;20180;-78
2022/06/18 10:48:27;;;;;;;7.40;2.58;;;37.00;79.10;;;;;;6656816;88;20328;-79
2022/06/18 10:58:29;;;;;;;9.57;2.65;;;36.60;77.70;;;;;;6652866;89;20611;-79
2022/06/18 11:08:33;;;;;;;6.45;2.50;;;36.90;76.70;;;;;;6653209;89;20375;-79
2022/06/18 11:18:44;;;;;;;8.13;2.97;;;37.20;75.30;;;;;;6652424;88;20226;-78
2022/06/18 11:28:48;;;;;;;11.18;2.58;;;38.00;72.90;;;;;;6620391;89;20228;-78
2022/06/18 11:38:57;;;;;;;7.93;2.65;;;38.70;72.80;;;;;;6623434;89;20184;-79
2022/06/18 11:49:03;;;;;;;7.47;2.50;;;38.70;71.30;;;;;;6623295;89;20177;-77
2022/06/18 11:59:16;;;;;;;10.23;2.80;;;39.10;70.10;;;;;;6622387;89;20658;-77
2022/06/18 12:09:17;;;;;;;7.43;2.62;;;37.90;68.50;;;;;;6623793;89;20731;-79
2022/06/18 12:19:22;;;;;;;7.05;2.50;;;38.60;66.80;;;;;;6663113;77;20675;-77
2022/06/18 12:29:56;;;;;;;7.32;2.60;;;39.20;66.60;;;;;;6655209;88;20628;-77
2022/06/18 12:40:13;;;;;;;7.22;2.75;;;38.50;65.90;;;;;;6663223;88;20293;-77
2022/06/18 12:50:21;;;;;;;10.57;2.85;;;38.20;66.30;;;;;;6669976;88;20223;-77
2022/06/18 13:00:35;;;;;;;7.68;2.80;;;38.50;65.70;;;;;;6660758;88;20591;-77
2022/06/18 13:10:48;;;;;;;8.25;2.85;;;39.10;66.10;;;;;;6660842;89;20247;-76
2022/06/18 13:20:54;;;;;;;13.23;3.00;;;39.20;65.60;;;;;;6670751;88;20199;-77
2022/06/18 13:31:39;;;;;;;7.43;2.80;;;39.70;64.20;;;;;;6666863;89;20699;-77
2022/06/18 13:42:08;;;;;;;5.40;2.85;;;39.10;63.80;;;;;;6660310;89;20216;-77
2022/06/18 13:52:08;;;;;;;14.53;2.93;;;38.70;64.00;;;;;;6657374;89;20184;-76
2022/06/18 14:02:41;;;;;;;6.05;2.45;;;38.40;64.00;;;;;;6661822;89;20236;-77
2022/06/18 14:12:47;;;;;;;9.75;3.03;;;38.50;64.60;;;;;;6663912;89;20676;-77
2022/06/18 14:23:01;;;;;;;7.05;2.70;;;39.60;64.70;;;;;;6655645;89;20205;-77
2022/06/18 14:33:36;;;;;;;9.30;2.75;;;37.90;64.50;;;;;;6658958;89;20244;-76
2022/06/18 14:43:52;;;;;;;7.85;2.60;;;38.30;63.50;;;;;;6658963;89;20332;-77
2022/06/18 14:54:12;;;;;;;8.98;3.05;;;39.00;64.10;;;;;;6662044;89;20230;-77
2022/06/18 15:04:24;;;;;;;9.82;2.80;;;39.40;62.90;;;;;;6662966;89;20262;-76
2022/06/18 15:14:30;;;;;;;10.73;2.80;;;39.40;61.40;;;;;;6662495;89;20345;-77
2022/06/18 15:35:11;;;;;;;9.27;2.80;;;38.60;61.00;;;;;;6660314;89;20223;-77
2022/06/18 15:45:23;;;;;;;12.27;3.17;;;38.40;61.40;;;;;;6664611;89;20217;-78
2022/06/18 15:55:36;;;;;;;15.18;3.37;;;38.90;61.80;;;;;;6664201;89;20213;-78
2022/06/18 16:05:41;;;;;;;12.88;3.00;;;38.70;60.60;;;;;;6663792;88;20188;-77
2022/06/18 16:15:45;;;;;;;15.75;3.40;;;38.50;60.20;;;;;;6671650;88;20180;-77
2022/06/18 16:25:48;;;;;;;12.77;3.33;;;38.40;61.30;;;;;;6672715;89;20613;-78
2022/06/18 16:36:05;;;;;;;12.85;3.17;;;37.50;61.50;;;;;;6662030;89;20584;-77
2022/06/18 16:46:21;;;;;;;19.50;3.37;;;37.20;61.50;;;;;;6666553;88;20257;-77
2022/06/18 16:56:21;;;;;;;14.73;3.28;;;36.90;61.00;;;;;;6669852;88;20221;-78
2022/06/18 17:06:22;;;;;;;;;;;36.80;62.70;;;;;;6672449;89;20216;-77
2022/06/18 17:16:22;;;;;;;13.93;3.78;;;36.70;62.60;;;;;;6665786;89;20667;-78
2022/06/18 17:36:51;;;;;;;17.08;3.85;;;36.20;61.30;;;;;;6658786;89;20195;-77
2022/06/18 17:46:51;;;;;;;17.30;3.67;;;35.80;62.10;;;;;;6664191;89;20199;-77
2022/06/18 17:56:52;;;;;;;20.58;4.12;;;35.70;62.90;;;;;;6660258;88;20217;-77
2022/06/18 18:06:55;;;;;;;17.10;4.07;;;35.40;63.10;;;;;;6664191;89;20196;-78
2022/06/18 18:16:57;;;;;;;16.70;3.22;;;35.10;63.40;;;;;;6662940;88;20179;-77
2022/06/18 18:27:20;;;;;;;14.75;3.60;;;34.80;64.30;;;;;;6669898;78;20869;-79
2022/06/18 18:37:20;;;;;;;12.68;3.17;;;34.30;63.90;;;;;;6635804;88;20619;-79
2022/06/18 18:47:21;;;;;;;12.07;3.50;;;33.70;65.60;;;;;;6632562;88;20193;-78
2022/06/18 18:57:22;;;;;;;16.80;4.20;;;33.30;66.50;;;;;;6632766;88;20189;-79
2022/06/18 19:07:22;;;;;;;16.87;6.00;;;32.70;67.30;;;;;;6633718;89;20777;-79
2022/06/18 19:17:23;;;;;;;17.98;3.90;;;32.50;68.20;;;;;;6626693;88;20194;-79
2022/06/18 19:27:25;;;;;;;22.60;4.87;;;32.10;72.00;;;;;;6631427;89;20315;-78
2022/06/18 19:37:26;;;;;;;16.90;4.70;;;31.60;72.20;;;;;;6637783;88;20201;-79
2022/06/18 19:47:27;;;;;;;19.80;4.40;;;31.40;73.30;;;;;;6632174;89;20817;-78
2022/06/18 19:57:28;;;;;;;18.27;4.30;;;31.10;75.20;;;;;;6633916;89;20247;-79
2022/06/18 20:07:28;;;;;;;15.52;3.83;;;30.80;76.40;;;;;;6645236;89;20234;-78
2022/06/18 20:17:29;;;;;;;21.48;4.12;;;30.40;77.20;;;;;;6631758;89;20696;-79
2022/06/18 20:27:31;;;;;;;13.32;3.35;;;30.20;76.60;;;;;;6626581;89;20203;-78
2022/06/18 20:37:32;;;;;;;;;;;29.80;77.50;;;;;;6629809;88;20193;-78
2022/06/18 20:47:33;;;;;;;17.23;3.95;;;29.30;78.60;;;;;;6629726;89;20096;-77
2022/06/18 20:57:34;;;;;;;18.02;4.60;;;29.10;79.10;;;;;;6632712;89;20220;-79
2022/06/18 21:07:34;;;;;;;15.23;3.80;;;28.60;80.30;;;;;;6633675;89;20214;-79
2022/06/18 21:17:36;;;;;;;18.83;4.25;;;28.40;81.30;;;;;;6634517;88;20269;-79
2022/06/18 21:27:36;;;;;;;14.00;3.95;;;28.40;81.30;;;;;;6632480;89;20638;-78
2022/06/18 21:37:37;;;;;;;20.12;4.90;;;28.10;82.40;;;;;;6629450;88;20251;-78
2022/06/18 21:47:37;;;;;;;17.73;5.15;;;28.10;83.50;;;;;;6628118;88;20772;-78
2022/06/18 21:57:44;;;;;;;13.95;4.82;;;27.90;84.50;;;;;;6636764;88;20235;-78
2022/06/18 22:07:44;;;;;;;16.50;4.72;;;27.60;86.10;;;;;;6629331;89;21017;-78
2022/06/18 22:17:45;;;;;;;19.43;4.53;;;27.20;88.30;;;;;;6630057;89;20196;-79
2022/06/18 22:27:46;;;;;;;19.10;4.97;;;27.20;88.80;;;;;;6630512;89;20201;-78
2022/06/18 22:37:47;;;;;;;14.70;4.47;;;26.80;90.60;;;;;;6626983;88;20234;-77
2022/06/18 22:47:49;;;;;;;18.95;4.37;;;26.50;91.20;;;;;;6631850;88;20190;-78
2022/06/18 22:57:49;;;;;;;19.67;4.60;;;26.40;91.20;;;;;;6631122;88;20193;-78
2022/06/18 23:07:54;;;;;;;18.20;4.00;;;26.20;91.00;;;;;;6632085;88;20648;-78
2022/06/18 23:17:55;;;;;;;20.95;4.12;;;26.10;90.70;;;;;;6624470;89;20740;-78
2022/06/18 23:27:56;;;;;;;15.70;3.63;;;26.20;90.10;;;;;;6633515;89;20325;-79
2022/06/18 23:37:57;;;;;;;18.35;3.95;;;26.40;88.50;;;;;;6630842;88;20206;-78
2022/06/18 23:47:59;;;;;;;13.95;3.67;;;26.60;86.70;;;;;;6623863;88;20227;-79
2022/06/18 23:58:01;;;;;;;14.38;3.00;;;26.80;85.20;;;;;;6624632;89;20205;-78
